sensor_id;sensor_type;location;lat;lon;timestamp;temperature;humidity
2389;DHT22;1205;47.984;7.668;2023-05-07T00:00:33;15.10;99.90
2389;DHT22;1205;47.984;7.668;2023-05-07T00:02:59;15.00;99.90
2389;DHT22;1205;47.984;7.668;2023-05-07T00:05:25;14.90;99.90
2389;DHT22;1205;47.984;7.668;2023-05-07T00:07:51;14.90;99.90
2389;DHT22;1205;47.984;7.668;2023-05-07T00:10:18;15.00;99.90
2389;DHT22;1205;47.984;7.668;2023-05-07T00:12:44;15.10;99.90
2389;DHT22;1205;47.984;7.668;2023-05-07T00:15:10;15.10;99.90
2389;DHT22;1205;47.984;7.668;2023-05-07T00:17:35;15.20;99.90
2389;DHT22;1205;47.984;7.668;2023-05-07T00:20:02;15.40;99.90
2389;DHT22;1205;47.984;7.668;2023-05-07T00:22:29;15.40;99.90
2389;DHT22;1205;47.984;7.668;2023-05-07T00:24:55;15.30;99.90
2389;DHT22;1205;47.984;7.668;2023-05-07T00:27:21;15.30;99.90
2389;DHT22;1205;47.984;7.668;2023-05-07T00:29:47;15.30;99.90
2389;DHT22;1205;47.984;7.668;2023-05-07T00:32:12;15.30;99.90
2389;DHT22;1205;47.984;7.668;2023-05-07T00:34:38;15.20;99.90
2389;DHT22;1205;47.984;7.668;2023-05-07T00:37:05;15.10;99.90
2389;DHT22;1205;47.984;7.668;2023-05-07T00:39:33;15.10;99.90
2389;DHT22;1205;47.984;7.668;2023-05-07T00:41:58;15.10;99.90
2389;DHT22;1205;47.984;7.668;2023-05-07T00:44:24;15.10;99.90
2389;DHT22;1205;47.984;7.668;2023-05-07T00:46:50;15.00;99.90
2389;DHT22;1205;47.984;7.668;2023-05-07T00:49:16;14.90;99.90
2389;DHT22;1205;47.984;7.668;2023-05-07T00:51:42;14.90;99.90
2389;DHT22;1205;47.984;7.668;2023-05-07T00:54:08;14.90;99.90
2389;DHT22;1205;47.984;7.668;2023-05-07T00:56:34;14.80;99.90
2389;DHT22;1205;47.984;7.668;2023-05-07T00:59:01;14.80;99.90
2389;DHT22;1205;47.984;7.668;2023-05-07T01:01:27;14.90;99.90
2389;DHT22;1205;47.984;7.668;2023-05-07T01:03:53;14.80;99.90
2389;DHT22;1205;47.984;7.668;2023-05-07T01:06:20;14.80;99.90
2389;DHT22;1205;47.984;7.668;2023-05-07T01:08:47;14.70;99.90
2389;DHT22;1205;47.984;7.668;2023-05-07T01:11:16;14.70;99.90
2389;DHT22;1205;47.984;7.668;2023-05-07T01:13:42;14.70;99.90
2389;DHT22;1205;47.984;7.668;2023-05-07T01:16:09;14.60;99.90
2389;DHT22;1205;47.984;7.668;2023-05-07T01:18:35;14.60;99.90
2389;DHT22;1205;47.984;7.668;2023-05-07T01:21:02;14.50;99.90
2389;DHT22;1205;47.984;7.668;2023-05-07T01:23:29;14.50;99.90
2389;DHT22;1205;47.984;7.668;2023-05-07T01:25:56;14.40;99.90
2389;DHT22;1205;47.984;7.668;2023-05-07T01:28:21;14.30;99.90
2389;DHT22;1205;47.984;7.668;2023-05-07T01:30:50;14.20;99.90
2389;DHT22;1205;47.984;7.668;2023-05-07T01:33:19;14.30;99.90
2389;DHT22;1205;47.984;7.668;2023-05-07T01:35:50;14.20;99.90
2389;DHT22;1205;47.984;7.668;2023-05-07T01:38:17;14.20;99.90
2389;DHT22;1205;47.984;7.668;2023-05-07T01:40:43;14.10;99.90
2389;DHT22;1205;47.984;7.668;2023-05-07T01:43:09;14.10;99.90
2389;DHT22;1205;47.984;7.668;2023-05-07T01:45:35;14.10;99.90
2389;DHT22;1205;47.984;7.668;2023-05-07T01:48:02;14.00;99.90
2389;DHT22;1205;47.984;7.668;2023-05-07T01:50:29;14.00;99.90
2389;DHT22;1205;47.984;7.668;2023-05-07T01:52:55;13.90;99.90
2389;DHT22;1205;47.984;7.668;2023-05-07T01:55:21;13.80;99.90
2389;DHT22;1205;47.984;7.668;2023-05-07T01:57:46;13.90;99.90
2389;DHT22;1205;47.984;7.668;2023-05-07T02:00:12;13.80;99.90
2389;DHT22;1205;47.984;7.668;2023-05-07T02:02:38;13.80;99.90
2389;DHT22;1205;47.984;7.668;2023-05-07T02:05:04;13.70;99.90
2389;DHT22;1205;47.984;7.668;2023-05-07T02:07:29;13.70;99.90
2389;DHT22;1205;47.984;7.668;2023-05-07T02:09:55;13.70;99.90
2389;DHT22;1205;47.984;7.668;2023-05-07T02:12:21;13.70;99.90
2389;DHT22;1205;47.984;7.668;2023-05-07T02:14:47;13.80;99.90
2389;DHT22;1205;47.984;7.668;2023-05-07T02:17:12;13.70;99.90
2389;DHT22;1205;47.984;7.668;2023-05-07T02:19:38;13.70;99.90
2389;DHT22;1205;47.984;7.668;2023-05-07T02:22:03;13.70;99.90
2389;DHT22;1205;47.984;7.668;2023-05-07T02:24:29;13.60;99.90
2389;DHT22;1205;47.984;7.668;2023-05-07T02:26:55;13.60;99.90
2389;DHT22;1205;47.984;7.668;2023-05-07T02:29:20;13.60;99.90
2389;DHT22;1205;47.984;7.668;2023-05-07T02:31:46;13.60;99.90
2389;DHT22;1205;47.984;7.668;2023-05-07T02:34:16;13.70;99.90
2389;DHT22;1205;47.984;7.668;2023-05-07T02:36:43;13.60;99.90
2389;DHT22;1205;47.984;7.668;2023-05-07T02:39:08;13.50;99.90
2389;DHT22;1205;47.984;7.668;2023-05-07T02:41:34;13.50;99.90
2389;DHT22;1205;47.984;7.668;2023-05-07T02:43:59;13.50;99.90
2389;DHT22;1205;47.984;7.668;2023-05-07T02:46:25;13.50;99.90
2389;DHT22;1205;47.984;7.668;2023-05-07T02:48:51;13.50;99.90
2389;DHT22;1205;47.984;7.668;2023-05-07T02:51:20;13.40;99.90
2389;DHT22;1205;47.984;7.668;2023-05-07T02:53:46;13.40;99.90
2389;DHT22;1205;47.984;7.668;2023-05-07T02:56:12;13.40;99.90
2389;DHT22;1205;47.984;7.668;2023-05-07T02:58:37;13.40;99.90
2389;DHT22;1205;47.984;7.668;2023-05-07T03:01:05;13.30;99.90
2389;DHT22;1205;47.984;7.668;2023-05-07T03:03:31;13.30;99.90
2389;DHT22;1205;47.984;7.668;2023-05-07T03:05:56;13.30;99.90
2389;DHT22;1205;47.984;7.668;2023-05-07T03:08:22;13.20;99.90
2389;DHT22;1205;47.984;7.668;2023-05-07T03:10:48;13.20;99.90
2389;DHT22;1205;47.984;7.668;2023-05-07T03:13:14;13.20;99.90
2389;DHT22;1205;47.984;7.668;2023-05-07T03:15:40;13.20;99.90
2389;DHT22;1205;47.984;7.668;2023-05-07T03:18:05;13.20;99.90
2389;DHT22;1205;47.984;7.668;2023-05-07T03:20:31;13.20;99.90
2389;DHT22;1205;47.984;7.668;2023-05-07T03:22:56;13.20;99.90
2389;DHT22;1205;47.984;7.668;2023-05-07T03:25:22;13.10;99.90
2389;DHT22;1205;47.984;7.668;2023-05-07T03:27:48;13.20;99.90
2389;DHT22;1205;47.984;7.668;2023-05-07T03:30:14;13.20;99.90
2389;DHT22;1205;47.984;7.668;2023-05-07T03:32:39;13.10;99.90
2389;DHT22;1205;47.984;7.668;2023-05-07T03:35:05;13.10;99.90
2389;DHT22;1205;47.984;7.668;2023-05-07T03:37:31;13.10;99.90
2389;DHT22;1205;47.984;7.668;2023-05-07T03:39:57;13.10;99.90
2389;DHT22;1205;47.984;7.668;2023-05-07T03:42:22;13.00;99.90
2389;DHT22;1205;47.984;7.668;2023-05-07T03:44:48;12.90;99.90
2389;DHT22;1205;47.984;7.668;2023-05-07T03:47:14;12.90;99.90
2389;DHT22;1205;47.984;7.668;2023-05-07T03:49:39;12.90;99.90
2389;DHT22;1205;47.984;7.668;2023-05-07T03:52:06;12.90;99.90
2389;DHT22;1205;47.984;7.668;2023-05-07T03:54:31;12.90;99.90
2389;DHT22;1205;47.984;7.668;2023-05-07T03:56:57;12.90;99.90
2389;DHT22;1205;47.984;7.668;2023-05-07T03:59:23;12.90;99.90
2389;DHT22;1205;47.984;7.668;2023-05-07T04:01:48;12.90;99.90
2389;DHT22;1205;47.984;7.668;2023-05-07T04:04:14;12.80;99.90
2389;DHT22;1205;47.984;7.668;2023-05-07T04:06:40;12.80;99.90
2389;DHT22;1205;47.984;7.668;2023-05-07T04:09:06;12.70;99.90
2389;DHT22;1205;47.984;7.668;2023-05-07T04:11:32;12.60;99.90
2389;DHT22;1205;47.984;7.668;2023-05-07T04:13:57;12.70;99.90
2389;DHT22;1205;47.984;7.668;2023-05-07T04:16:23;12.70;99.90
2389;DHT22;1205;47.984;7.668;2023-05-07T04:18:48;12.70;99.90
2389;DHT22;1205;47.984;7.668;2023-05-07T04:21:21;12.80;99.90
2389;DHT22;1205;47.984;7.668;2023-05-07T04:23:47;12.80;99.90
2389;DHT22;1205;47.984;7.668;2023-05-07T04:26:13;12.80;99.90
2389;DHT22;1205;47.984;7.668;2023-05-07T04:28:39;12.90;99.90
2389;DHT22;1205;47.984;7.668;2023-05-07T04:31:05;12.90;99.90
2389;DHT22;1205;47.984;7.668;2023-05-07T04:33:31;12.90;99.90
2389;DHT22;1205;47.984;7.668;2023-05-07T04:35:58;12.90;99.90
2389;DHT22;1205;47.984;7.668;2023-05-07T04:38:30;13.00;99.90
2389;DHT22;1205;47.984;7.668;2023-05-07T04:40:57;13.00;99.90
2389;DHT22;1205;47.984;7.668;2023-05-07T04:43:23;13.00;99.90
2389;DHT22;1205;47.984;7.668;2023-05-07T04:45:51;13.10;99.90
2389;DHT22;1205;47.984;7.668;2023-05-07T04:48:17;13.10;99.90
2389;DHT22;1205;47.984;7.668;2023-05-07T04:50:46;13.10;99.90
2389;DHT22;1205;47.984;7.668;2023-05-07T04:53:12;13.10;99.90
2389;DHT22;1205;47.984;7.668;2023-05-07T04:55:37;13.20;99.90
2389;DHT22;1205;47.984;7.668;2023-05-07T04:58:03;13.30;99.90
2389;DHT22;1205;47.984;7.668;2023-05-07T05:00:30;13.40;99.90
2389;DHT22;1205;47.984;7.668;2023-05-07T05:02:56;13.60;99.90
2389;DHT22;1205;47.984;7.668;2023-05-07T05:05:21;13.80;99.90
2389;DHT22;1205;47.984;7.668;2023-05-07T05:07:47;13.90;99.90
2389;DHT22;1205;47.984;7.668;2023-05-07T05:10:12;14.00;99.90
2389;DHT22;1205;47.984;7.668;2023-05-07T05:12:38;14.00;99.90
2389;DHT22;1205;47.984;7.668;2023-05-07T05:15:04;14.10;99.90
2389;DHT22;1205;47.984;7.668;2023-05-07T05:17:30;14.20;99.90
2389;DHT22;1205;47.984;7.668;2023-05-07T05:19:56;14.10;99.90
2389;DHT22;1205;47.984;7.668;2023-05-07T05:22:21;14.20;99.90
2389;DHT22;1205;47.984;7.668;2023-05-07T05:24:47;14.30;99.90
2389;DHT22;1205;47.984;7.668;2023-05-07T05:27:12;14.40;99.90
2389;DHT22;1205;47.984;7.668;2023-05-07T05:29:38;14.40;99.90
2389;DHT22;1205;47.984;7.668;2023-05-07T05:32:04;14.50;99.90
2389;DHT22;1205;47.984;7.668;2023-05-07T05:34:29;14.50;99.90
2389;DHT22;1205;47.984;7.668;2023-05-07T05:36:55;14.70;99.90
2389;DHT22;1205;47.984;7.668;2023-05-07T05:39:20;14.70;99.90
2389;DHT22;1205;47.984;7.668;2023-05-07T05:41:48;14.80;99.90
2389;DHT22;1205;47.984;7.668;2023-05-07T05:44:13;14.70;99.90
2389;DHT22;1205;47.984;7.668;2023-05-07T05:46:39;14.80;99.90
2389;DHT22;1205;47.984;7.668;2023-05-07T05:49:05;14.80;99.90
2389;DHT22;1205;47.984;7.668;2023-05-07T05:51:30;15.00;99.90
2389;DHT22;1205;47.984;7.668;2023-05-07T05:53:56;15.10;99.90
2389;DHT22;1205;47.984;7.668;2023-05-07T05:56:22;15.20;99.90
2389;DHT22;1205;47.984;7.668;2023-05-07T05:58:47;15.40;99.90
2389;DHT22;1205;47.984;7.668;2023-05-07T06:01:13;15.80;99.90
2389;DHT22;1205;47.984;7.668;2023-05-07T06:03:38;16.10;99.90
2389;DHT22;1205;47.984;7.668;2023-05-07T06:06:04;16.60;99.90
2389;DHT22;1205;47.984;7.668;2023-05-07T06:08:30;16.80;99.90
2389;DHT22;1205;47.984;7.668;2023-05-07T06:10:56;17.00;99.90
2389;DHT22;1205;47.984;7.668;2023-05-07T06:13:22;17.30;99.90
2389;DHT22;1205;47.984;7.668;2023-05-07T06:15:48;17.20;99.90
2389;DHT22;1205;47.984;7.668;2023-05-07T06:18:14;17.50;99.90
2389;DHT22;1205;47.984;7.668;2023-05-07T06:20:39;17.40;99.90
2389;DHT22;1205;47.984;7.668;2023-05-07T06:23:05;17.40;99.90
2389;DHT22;1205;47.984;7.668;2023-05-07T06:25:30;17.40;99.90
2389;DHT22;1205;47.984;7.668;2023-05-07T06:27:56;17.40;99.90
2389;DHT22;1205;47.984;7.668;2023-05-07T06:30:22;17.70;99.90
2389;DHT22;1205;47.984;7.668;2023-05-07T06:32:47;17.90;99.90
2389;DHT22;1205;47.984;7.668;2023-05-07T06:35:13;18.30;99.90
2389;DHT22;1205;47.984;7.668;2023-05-07T06:37:38;18.40;99.90
2389;DHT22;1205;47.984;7.668;2023-05-07T06:40:05;18.90;99.90
2389;DHT22;1205;47.984;7.668;2023-05-07T06:42:32;19.20;99.90
2389;DHT22;1205;47.984;7.668;2023-05-07T06:44:57;19.70;99.90
2389;DHT22;1205;47.984;7.668;2023-05-07T06:47:23;20.00;99.90
2389;DHT22;1205;47.984;7.668;2023-05-07T06:49:49;20.00;99.90
2389;DHT22;1205;47.984;7.668;2023-05-07T06:52:14;20.50;99.90
2389;DHT22;1205;47.984;7.668;2023-05-07T06:54:40;21.00;99.90
2389;DHT22;1205;47.984;7.668;2023-05-07T06:57:05;21.40;99.90
2389;DHT22;1205;47.984;7.668;2023-05-07T06:59:31;21.90;99.90
2389;DHT22;1205;47.984;7.668;2023-05-07T07:01:57;22.00;99.90
2389;DHT22;1205;47.984;7.668;2023-05-07T07:04:22;22.00;99.90
2389;DHT22;1205;47.984;7.668;2023-05-07T07:06:49;22.10;99.90
2389;DHT22;1205;47.984;7.668;2023-05-07T07:09:14;21.70;99.90
2389;DHT22;1205;47.984;7.668;2023-05-07T07:11:40;22.30;99.90
2389;DHT22;1205;47.984;7.668;2023-05-07T07:14:06;22.30;99.30
2389;DHT22;1205;47.984;7.668;2023-05-07T07:16:31;22.00;99.00
2389;DHT22;1205;47.984;7.668;2023-05-07T07:18:57;21.60;99.70
2389;DHT22;1205;47.984;7.668;2023-05-07T07:21:23;22.00;99.80
2389;DHT22;1205;47.984;7.668;2023-05-07T07:23:48;21.80;98.70
2389;DHT22;1205;47.984;7.668;2023-05-07T07:26:14;21.40;99.40
2389;DHT22;1205;47.984;7.668;2023-05-07T07:28:43;21.60;99.30
2389;DHT22;1205;47.984;7.668;2023-05-07T07:31:09;22.00;99.00
2389;DHT22;1205;47.984;7.668;2023-05-07T07:33:35;21.90;98.50
2389;DHT22;1205;47.984;7.668;2023-05-07T07:36:00;22.10;98.80
2389;DHT22;1205;47.984;7.668;2023-05-07T07:38:26;22.20;99.50
2389;DHT22;1205;47.984;7.668;2023-05-07T07:40:52;22.20;98.30
2389;DHT22;1205;47.984;7.668;2023-05-07T07:43:17;21.90;98.20
2389;DHT22;1205;47.984;7.668;2023-05-07T07:45:43;22.30;98.20
2389;DHT22;1205;47.984;7.668;2023-05-07T07:48:09;22.70;97.80
2389;DHT22;1205;47.984;7.668;2023-05-07T07:50:34;23.00;98.70
2389;DHT22;1205;47.984;7.668;2023-05-07T07:53:00;23.60;98.10
2389;DHT22;1205;47.984;7.668;2023-05-07T07:55:26;23.60;97.40
2389;DHT22;1205;47.984;7.668;2023-05-07T07:57:52;23.60;97.70
2389;DHT22;1205;47.984;7.668;2023-05-07T08:00:18;24.00;97.30
2389;DHT22;1205;47.984;7.668;2023-05-07T08:02:43;24.40;96.60
2389;DHT22;1205;47.984;7.668;2023-05-07T08:05:09;24.80;96.40
2389;DHT22;1205;47.984;7.668;2023-05-07T08:07:34;25.00;95.90
2389;DHT22;1205;47.984;7.668;2023-05-07T08:10:00;24.60;94.80
2389;DHT22;1205;47.984;7.668;2023-05-07T08:12:26;24.40;95.80
2389;DHT22;1205;47.984;7.668;2023-05-07T08:14:51;24.30;96.20
2389;DHT22;1205;47.984;7.668;2023-05-07T08:17:17;24.00;95.40
2389;DHT22;1205;47.984;7.668;2023-05-07T08:19:43;23.60;96.80
2389;DHT22;1205;47.984;7.668;2023-05-07T08:22:09;23.90;96.90
2389;DHT22;1205;47.984;7.668;2023-05-07T08:24:36;23.80;96.10
2389;DHT22;1205;47.984;7.668;2023-05-07T08:27:01;23.10;96.70
2389;DHT22;1205;47.984;7.668;2023-05-07T08:29:27;22.70;97.10
2389;DHT22;1205;47.984;7.668;2023-05-07T08:31:52;22.30;98.00
2389;DHT22;1205;47.984;7.668;2023-05-07T08:34:18;22.90;98.10
2389;DHT22;1205;47.984;7.668;2023-05-07T08:36:44;23.20;97.80
2389;DHT22;1205;47.984;7.668;2023-05-07T08:39:11;23.20;98.10
2389;DHT22;1205;47.984;7.668;2023-05-07T08:41:37;23.10;97.60
2389;DHT22;1205;47.984;7.668;2023-05-07T08:44:03;23.30;97.40
2389;DHT22;1205;47.984;7.668;2023-05-07T08:46:32;22.90;97.30
2389;DHT22;1205;47.984;7.668;2023-05-07T08:48:57;22.20;98.10
2389;DHT22;1205;47.984;7.668;2023-05-07T08:51:23;21.90;99.30
2389;DHT22;1205;47.984;7.668;2023-05-07T08:53:49;22.40;99.40
2389;DHT22;1205;47.984;7.668;2023-05-07T08:56:15;22.60;99.20
2389;DHT22;1205;47.984;7.668;2023-05-07T08:58:42;22.60;98.90
2389;DHT22;1205;47.984;7.668;2023-05-07T09:01:16;23.00;98.20
2389;DHT22;1205;47.984;7.668;2023-05-07T09:03:44;23.10;97.10
2389;DHT22;1205;47.984;7.668;2023-05-07T09:06:10;23.60;97.70
2389;DHT22;1205;47.984;7.668;2023-05-07T09:08:36;22.90;97.60
2389;DHT22;1205;47.984;7.668;2023-05-07T09:11:02;22.80;98.00
2389;DHT22;1205;47.984;7.668;2023-05-07T09:13:28;22.90;98.00
2389;DHT22;1205;47.984;7.668;2023-05-07T09:15:55;23.20;97.80
2389;DHT22;1205;47.984;7.668;2023-05-07T09:18:20;23.60;97.30
2389;DHT22;1205;47.984;7.668;2023-05-07T09:20:46;23.80;96.70
2389;DHT22;1205;47.984;7.668;2023-05-07T09:23:11;23.50;96.30
2389;DHT22;1205;47.984;7.668;2023-05-07T09:25:37;23.80;96.50
2389;DHT22;1205;47.984;7.668;2023-05-07T09:28:04;22.90;96.40
2389;DHT22;1205;47.984;7.668;2023-05-07T09:30:32;22.80;97.00
2389;DHT22;1205;47.984;7.668;2023-05-07T09:32:59;22.60;96.90
2389;DHT22;1205;47.984;7.668;2023-05-07T09:35:25;22.70;97.80
2389;DHT22;1205;47.984;7.668;2023-05-07T09:37:57;23.00;98.30
2389;DHT22;1205;47.984;7.668;2023-05-07T09:40:25;23.30;98.20
2389;DHT22;1205;47.984;7.668;2023-05-07T09:42:51;23.40;96.70
2389;DHT22;1205;47.984;7.668;2023-05-07T09:45:30;23.30;96.90
2389;DHT22;1205;47.984;7.668;2023-05-07T09:47:58;22.90;97.10
2389;DHT22;1205;47.984;7.668;2023-05-07T09:50:28;22.10;97.80
2389;DHT22;1205;47.984;7.668;2023-05-07T09:52:55;22.10;99.00
2389;DHT22;1205;47.984;7.668;2023-05-07T09:55:22;21.40;98.90
2389;DHT22;1205;47.984;7.668;2023-05-07T09:57:52;21.90;99.60
2389;DHT22;1205;47.984;7.668;2023-05-07T10:00:22;21.70;98.90
2389;DHT22;1205;47.984;7.668;2023-05-07T10:02:49;21.40;99.50
2389;DHT22;1205;47.984;7.668;2023-05-07T10:05:21;21.50;99.90
2389;DHT22;1205;47.984;7.668;2023-05-07T10:07:47;21.30;99.90
2389;DHT22;1205;47.984;7.668;2023-05-07T10:10:14;20.80;99.90
2389;DHT22;1205;47.984;7.668;2023-05-07T10:12:41;20.80;99.90
2389;DHT22;1205;47.984;7.668;2023-05-07T10:15:08;20.50;99.90
2389;DHT22;1205;47.984;7.668;2023-05-07T10:17:40;20.80;99.90
2389;DHT22;1205;47.984;7.668;2023-05-07T10:20:07;20.80;99.90
2389;DHT22;1205;47.984;7.668;2023-05-07T10:22:41;20.90;99.90
2389;DHT22;1205;47.984;7.668;2023-05-07T10:25:20;20.80;99.90
2389;DHT22;1205;47.984;7.668;2023-05-07T10:27:47;20.80;99.90
2389;DHT22;1205;47.984;7.668;2023-05-07T10:33:07;20.50;99.90
2389;DHT22;1205;47.984;7.668;2023-05-07T10:35:42;20.40;99.90
2389;DHT22;1205;47.984;7.668;2023-05-07T10:38:08;20.60;99.90
2389;DHT22;1205;47.984;7.668;2023-05-07T10:40:34;20.50;99.90
2389;DHT22;1205;47.984;7.668;2023-05-07T10:43:02;20.50;99.90
2389;DHT22;1205;47.984;7.668;2023-05-07T10:45:30;20.50;99.90
2389;DHT22;1205;47.984;7.668;2023-05-07T10:48:15;20.50;99.90
2389;DHT22;1205;47.984;7.668;2023-05-07T10:50:42;20.40;99.90
2389;DHT22;1205;47.984;7.668;2023-05-07T10:55:42;20.50;99.90
2389;DHT22;1205;47.984;7.668;2023-05-07T10:58:27;20.60;99.90
2389;DHT22;1205;47.984;7.668;2023-05-07T11:01:02;20.60;99.90
2389;DHT22;1205;47.984;7.668;2023-05-07T11:03:29;20.70;99.90
2389;DHT22;1205;47.984;7.668;2023-05-07T11:06:09;20.90;99.90
2389;DHT22;1205;47.984;7.668;2023-05-07T11:08:57;20.90;99.90
2389;DHT22;1205;47.984;7.668;2023-05-07T11:11:49;21.10;99.90
2389;DHT22;1205;47.984;7.668;2023-05-07T11:17:07;21.40;99.90
2389;DHT22;1205;47.984;7.668;2023-05-07T11:19:52;21.60;99.90
2389;DHT22;1205;47.984;7.668;2023-05-07T11:25:05;21.80;99.90
2389;DHT22;1205;47.984;7.668;2023-05-07T11:27:32;22.10;99.90
2389;DHT22;1205;47.984;7.668;2023-05-07T11:29:58;22.20;99.90
2389;DHT22;1205;47.984;7.668;2023-05-07T11:34:57;22.40;99.90
2389;DHT22;1205;47.984;7.668;2023-05-07T11:37:24;22.20;99.90
2389;DHT22;1205;47.984;7.668;2023-05-07T11:39:50;22.40;99.90
2389;DHT22;1205;47.984;7.668;2023-05-07T11:42:30;22.20;99.90
2389;DHT22;1205;47.984;7.668;2023-05-07T11:44:56;22.30;99.90
2389;DHT22;1205;47.984;7.668;2023-05-07T11:47:22;22.50;99.90
2389;DHT22;1205;47.984;7.668;2023-05-07T11:49:57;22.60;99.90
2389;DHT22;1205;47.984;7.668;2023-05-07T11:52:27;22.40;99.90
2389;DHT22;1205;47.984;7.668;2023-05-07T11:54:57;22.50;99.90
2389;DHT22;1205;47.984;7.668;2023-05-07T11:57:26;22.70;99.90
2389;DHT22;1205;47.984;7.668;2023-05-07T11:59:59;22.50;99.90
2389;DHT22;1205;47.984;7.668;2023-05-07T12:02:27;22.40;99.90
2389;DHT22;1205;47.984;7.668;2023-05-07T12:04:53;22.10;99.90
2389;DHT22;1205;47.984;7.668;2023-05-07T12:07:20;22.20;99.90
2389;DHT22;1205;47.984;7.668;2023-05-07T12:09:47;22.40;99.90
2389;DHT22;1205;47.984;7.668;2023-05-07T12:12:13;22.30;99.90
2389;DHT22;1205;47.984;7.668;2023-05-07T12:14:41;22.40;99.90
2389;DHT22;1205;47.984;7.668;2023-05-07T12:17:08;22.50;99.90
2389;DHT22;1205;47.984;7.668;2023-05-07T12:19:35;22.20;99.90
2389;DHT22;1205;47.984;7.668;2023-05-07T12:22:04;22.20;99.90
2389;DHT22;1205;47.984;7.668;2023-05-07T12:24:47;22.20;99.90
2389;DHT22;1205;47.984;7.668;2023-05-07T12:27:13;22.10;99.90
2389;DHT22;1205;47.984;7.668;2023-05-07T12:29:39;22.00;99.90
2389;DHT22;1205;47.984;7.668;2023-05-07T12:32:06;22.00;99.90
2389;DHT22;1205;47.984;7.668;2023-05-07T12:34:32;22.00;99.90
2389;DHT22;1205;47.984;7.668;2023-05-07T12:37:02;22.10;99.90
2389;DHT22;1205;47.984;7.668;2023-05-07T12:39:28;22.20;99.90
2389;DHT22;1205;47.984;7.668;2023-05-07T12:41:55;22.10;99.90
2389;DHT22;1205;47.984;7.668;2023-05-07T12:44:25;21.70;99.90
2389;DHT22;1205;47.984;7.668;2023-05-07T12:46:51;21.40;99.90
2389;DHT22;1205;47.984;7.668;2023-05-07T12:49:17;21.10;99.90
2389;DHT22;1205;47.984;7.668;2023-05-07T12:51:47;21.10;99.90
2389;DHT22;1205;47.984;7.668;2023-05-07T12:54:14;21.30;99.90
2389;DHT22;1205;47.984;7.668;2023-05-07T12:56:39;21.50;99.90
2389;DHT22;1205;47.984;7.668;2023-05-07T12:59:05;21.50;99.90
2389;DHT22;1205;47.984;7.668;2023-05-07T13:01:31;21.40;99.90
2389;DHT22;1205;47.984;7.668;2023-05-07T13:04:01;21.30;99.90
2389;DHT22;1205;47.984;7.668;2023-05-07T13:06:28;21.30;99.90
2389;DHT22;1205;47.984;7.668;2023-05-07T13:08:53;21.20;99.90
2389;DHT22;1205;47.984;7.668;2023-05-07T13:11:19;21.00;99.90
2389;DHT22;1205;47.984;7.668;2023-05-07T13:13:45;20.90;99.90
2389;DHT22;1205;47.984;7.668;2023-05-07T13:16:11;21.00;99.90
2389;DHT22;1205;47.984;7.668;2023-05-07T13:18:38;21.10;99.90
2389;DHT22;1205;47.984;7.668;2023-05-07T13:21:04;21.10;99.90
2389;DHT22;1205;47.984;7.668;2023-05-07T13:23:30;21.30;99.90
2389;DHT22;1205;47.984;7.668;2023-05-07T13:25:55;21.30;99.90
2389;DHT22;1205;47.984;7.668;2023-05-07T13:28:25;21.50;99.90
2389;DHT22;1205;47.984;7.668;2023-05-07T13:30:52;21.50;99.90
2389;DHT22;1205;47.984;7.668;2023-05-07T13:33:18;21.60;99.90
2389;DHT22;1205;47.984;7.668;2023-05-07T13:35:44;21.80;99.90
2389;DHT22;1205;47.984;7.668;2023-05-07T13:38:10;21.60;99.90
2389;DHT22;1205;47.984;7.668;2023-05-07T13:40:35;21.70;99.90
2389;DHT22;1205;47.984;7.668;2023-05-07T13:43:01;21.80;99.90
2389;DHT22;1205;47.984;7.668;2023-05-07T13:45:29;21.80;99.90
2389;DHT22;1205;47.984;7.668;2023-05-07T13:47:56;21.70;99.90
2389;DHT22;1205;47.984;7.668;2023-05-07T13:50:22;22.00;99.90
2389;DHT22;1205;47.984;7.668;2023-05-07T13:52:48;22.10;99.90
2389;DHT22;1205;47.984;7.668;2023-05-07T13:55:20;22.00;99.90
2389;DHT22;1205;47.984;7.668;2023-05-07T13:57:46;21.90;99.90
2389;DHT22;1205;47.984;7.668;2023-05-07T14:00:13;22.10;99.90
2389;DHT22;1205;47.984;7.668;2023-05-07T14:02:39;22.40;99.90
2389;DHT22;1205;47.984;7.668;2023-05-07T14:05:05;22.50;99.90
2389;DHT22;1205;47.984;7.668;2023-05-07T14:07:31;22.50;99.90
2389;DHT22;1205;47.984;7.668;2023-05-07T14:09:57;22.80;99.90
2389;DHT22;1205;47.984;7.668;2023-05-07T14:12:23;22.60;99.90
2389;DHT22;1205;47.984;7.668;2023-05-07T14:14:48;22.60;99.90
2389;DHT22;1205;47.984;7.668;2023-05-07T14:17:16;22.50;99.90
2389;DHT22;1205;47.984;7.668;2023-05-07T14:19:42;22.40;99.90
2389;DHT22;1205;47.984;7.668;2023-05-07T14:22:08;22.10;99.90
2389;DHT22;1205;47.984;7.668;2023-05-07T14:24:33;22.30;99.90
2389;DHT22;1205;47.984;7.668;2023-05-07T14:26:59;22.10;99.90
2389;DHT22;1205;47.984;7.668;2023-05-07T14:29:25;22.00;99.90
2389;DHT22;1205;47.984;7.668;2023-05-07T14:31:51;22.30;99.90
2389;DHT22;1205;47.984;7.668;2023-05-07T14:34:16;22.10;99.90
2389;DHT22;1205;47.984;7.668;2023-05-07T14:36:42;22.20;99.90
2389;DHT22;1205;47.984;7.668;2023-05-07T14:39:09;22.20;99.90
2389;DHT22;1205;47.984;7.668;2023-05-07T14:41:35;22.00;99.90
2389;DHT22;1205;47.984;7.668;2023-05-07T14:44:00;22.00;99.90
2389;DHT22;1205;47.984;7.668;2023-05-07T14:46:26;21.90;99.90
2389;DHT22;1205;47.984;7.668;2023-05-07T14:48:52;21.90;99.90
2389;DHT22;1205;47.984;7.668;2023-05-07T14:51:18;21.80;99.90
2389;DHT22;1205;47.984;7.668;2023-05-07T14:53:44;21.70;99.90
2389;DHT22;1205;47.984;7.668;2023-05-07T14:56:10;21.70;99.90
2389;DHT22;1205;47.984;7.668;2023-05-07T14:58:35;21.80;99.90
2389;DHT22;1205;47.984;7.668;2023-05-07T15:01:01;21.80;99.90
2389;DHT22;1205;47.984;7.668;2023-05-07T15:03:27;21.80;99.90
2389;DHT22;1205;47.984;7.668;2023-05-07T15:05:53;21.60;99.90
2389;DHT22;1205;47.984;7.668;2023-05-07T15:08:19;21.50;99.90
2389;DHT22;1205;47.984;7.668;2023-05-07T15:10:45;21.60;99.90
2389;DHT22;1205;47.984;7.668;2023-05-07T15:13:11;21.50;99.90
2389;DHT22;1205;47.984;7.668;2023-05-07T15:15:38;21.50;99.50
2389;DHT22;1205;47.984;7.668;2023-05-07T15:18:04;21.50;99.60
2389;DHT22;1205;47.984;7.668;2023-05-07T15:20:30;21.30;99.00
2389;DHT22;1205;47.984;7.668;2023-05-07T15:22:56;21.30;99.90
2389;DHT22;1205;47.984;7.668;2023-05-07T15:25:22;21.20;99.10
2389;DHT22;1205;47.984;7.668;2023-05-07T15:27:48;21.20;99.20
2389;DHT22;1205;47.984;7.668;2023-05-07T15:30:14;21.40;98.90
2389;DHT22;1205;47.984;7.668;2023-05-07T15:32:40;21.40;97.00
2389;DHT22;1205;47.984;7.668;2023-05-07T15:35:06;21.50;98.10
2389;DHT22;1205;47.984;7.668;2023-05-07T15:37:33;21.50;98.50
2389;DHT22;1205;47.984;7.668;2023-05-07T15:39:58;21.60;99.50
2389;DHT22;1205;47.984;7.668;2023-05-07T15:42:24;21.60;99.00
2389;DHT22;1205;47.984;7.668;2023-05-07T15:44:50;21.50;98.30
2389;DHT22;1205;47.984;7.668;2023-05-07T15:47:15;21.40;98.00
2389;DHT22;1205;47.984;7.668;2023-05-07T15:49:41;21.20;98.10
2389;DHT22;1205;47.984;7.668;2023-05-07T15:52:07;21.20;98.50
2389;DHT22;1205;47.984;7.668;2023-05-07T15:54:35;21.00;98.00
2389;DHT22;1205;47.984;7.668;2023-05-07T15:57:03;21.10;98.80
2389;DHT22;1205;47.984;7.668;2023-05-07T15:59:28;21.10;98.50
2389;DHT22;1205;47.984;7.668;2023-05-07T16:01:54;21.20;99.20
2389;DHT22;1205;47.984;7.668;2023-05-07T16:04:20;21.10;98.80
2389;DHT22;1205;47.984;7.668;2023-05-07T16:06:46;21.10;98.30
2389;DHT22;1205;47.984;7.668;2023-05-07T16:09:12;21.10;98.00
2389;DHT22;1205;47.984;7.668;2023-05-07T16:11:38;21.20;98.40